YMHB

Hobart International Airport

Airport
ICAO code
YMHB
IATA Code
HBA
Summary
ICAO Region
APAC
ICAO Territory
Location

Cambridge, Tasmania

Serving
Hobart
Elevation
13 ft
Coordinates
42° 50' 13" S , 147° 30' 20" E
KCC
Cfb
Metar
Observation
YMHB 100130Z 36004KT 9999 FEW027 10/04 Q1028
Station
Hobart Airport
Date/Time
2022-08-10 01:30:00
Wind direction
360°
Wind speed
04 kts
Lowest cloud amount
few clouds
Temperature
10°C
Dew point
4°C
Humidity
66%
QNH
1028 hPa
Weather condition
n/a

Hobart International Airport is an airport located in Cambridge, 17 kilometres east of Hobart, Tasmania.

Climatology

Mild temperate oceanic climate (Köppen climate classification Cfb).

Airport map

Aerial View

Airport accidents

SKYbrary Partners:

Safety knowledge contributed by: